Time;durP1;ratioP1;P1;durP2;ratioP2;P2;SDS_P1;SDS_P2;PMS_P1;PMS_P2;Temp;Humidity;BMP_temperature;BMP_pressure;BME280_temperature;BME280_humidity;BME280_pressure;Samples;Min_cycle;Max_cycle;Signal;HPM_P1;HPM_P2
2022/06/08 00:02:03;;;;;;;15.73;4.30;;;;;;;;;;5075096;28;20439;-71
2022/06/08 00:04:30;;;;;;;13.97;4.20;;;;;;;;;;5074995;28;20438;-70
2022/06/08 00:06:58;;;;;;;14.20;4.20;;;;;;;;;;5075041;28;20817;-70
2022/06/08 00:09:28;;;;;;;13.90;4.03;;;;;;;;;;5075125;28;20947;-70
2022/06/08 00:11:56;;;;;;;17.27;4.47;;;;;;;;;;5074932;28;20442;-71
2022/06/08 00:14:23;;;;;;;14.93;4.40;;;;;;;;;;5074627;28;20471;-70
2022/06/08 00:16:50;;;;;;;14.87;4.23;;;;;;;;;;5074782;28;20481;-71
2022/06/08 00:19:18;;;;;;;17.07;4.50;;;;;;;;;;5075121;28;20446;-70
2022/06/08 00:21:45;;;;;;;16.97;4.60;;;;;;;;;;5075110;28;20430;-70
2022/06/08 00:24:13;;;;;;;20.93;4.80;;;;;;;;;;5074433;28;20480;-70
2022/06/08 00:26:43;;;;;;;15.70;4.17;;;;;;;;;;5074567;28;20457;-70
2022/06/08 00:29:10;;;;;;;17.70;3.90;;;;;;;;;;5074866;28;20435;-70
2022/06/08 00:31:38;;;;;;;17.50;3.77;;;;;;;;;;5074630;28;20431;-70
2022/06/08 00:34:05;;;;;;;15.47;4.37;;;;;;;;;;5074560;28;20427;-70
2022/06/08 00:36:32;;;;;;;14.00;3.70;;;;;;;;;;5074511;28;20501;-70
2022/06/08 00:39:00;;;;;;;15.80;4.07;;;;;;;;;;5073679;28;20442;-70
2022/06/08 00:41:42;;;;;;;14.03;3.77;;;;;;;;;;5074682;28;20431;-71
2022/06/08 00:44:14;;;;;;;18.60;4.20;;;;;;;;;;5074103;28;20481;-70
2022/06/08 00:46:42;;;;;;;17.57;4.20;;;;;;;;;;5074299;28;20447;-70
2022/06/08 00:49:15;;;;;;;18.40;4.13;;;;;;;;;;5074262;28;20970;-70
2022/06/08 00:51:43;;;;;;;22.23;3.60;;;;;;;;;;5074226;28;20435;-70
2022/06/08 00:54:12;;;;;;;14.43;4.10;;;;;;;;;;5073845;28;20966;-70
2022/06/08 00:56:40;;;;;;;15.57;3.47;;;;;;;;;;5074043;28;20520;-70
2022/06/08 00:59:09;;;;;;;15.23;4.33;;;;;;;;;;5074292;28;20459;-70
2022/06/08 01:01:39;;;;;;;13.63;3.70;;;;;;;;;;5073966;28;20443;-71
2022/06/08 01:04:07;;;;;;;16.33;3.90;;;;;;;;;;5073710;28;20458;-71
2022/06/08 01:06:35;;;;;;;15.90;3.87;;;;;;;;;;5073898;28;20431;-70
2022/06/08 01:09:02;;;;;;;15.83;4.30;;;;;;;;;;5079423;28;20457;-71
2022/06/08 01:11:32;;;;;;;15.87;4.53;;;;;;;;;;5074608;28;20462;-70
2022/06/08 01:14:01;;;;;;;14.10;3.53;;;;;;;;;;5075032;28;20822;-71
2022/06/08 01:16:29;;;;;;;16.43;4.90;;;;;;;;;;5093808;28;20500;-71
2022/06/08 01:18:58;;;;;;;16.80;4.57;;;;;;;;;;5094351;28;20478;-70
2022/06/08 01:21:44;;;;;;;13.90;3.83;;;;;;;;;;5094035;28;20465;-70
2022/06/08 01:24:13;;;;;;;18.07;4.20;;;;;;;;;;5093567;28;20961;-71
2022/06/08 01:26:44;;;;;;;14.90;3.47;;;;;;;;;;5088428;28;20443;-71
2022/06/08 01:29:15;;;;;;;14.47;4.27;;;;;;;;;;5073520;28;20446;-70
2022/06/08 01:31:47;;;;;;;13.57;3.93;;;;;;;;;;5073447;28;20454;-70
2022/06/08 01:34:18;;;;;;;16.17;4.03;;;;;;;;;;5073389;28;20446;-70
2022/06/08 01:36:52;;;;;;;15.23;4.40;;;;;;;;;;5073575;28;20486;-70
2022/06/08 01:39:27;;;;;;;16.40;4.03;;;;;;;;;;5073394;28;20462;-70
2022/06/08 01:42:10;;;;;;;17.03;5.03;;;;;;;;;;5073547;28;20449;-70
2022/06/08 01:47:46;;;;;;;13.77;3.90;;;;;;;;;;5073252;28;20430;-71
2022/06/08 01:50:20;;;;;;;17.00;4.57;;;;;;;;;;5072080;28;20450;-71
2022/06/08 01:52:54;;;;;;;16.70;5.30;;;;;;;;;;5073036;28;20966;-70
2022/06/08 01:55:27;;;;;;;18.17;4.73;;;;;;;;;;5073021;28;20439;-70
2022/06/08 01:57:58;;;;;;;14.60;4.07;;;;;;;;;;5073380;28;20435;-71
2022/06/08 02:00:27;;;;;;;18.33;4.70;;;;;;;;;;5072706;28;20463;-71
2022/06/08 02:03:00;;;;;;;15.40;4.73;;;;;;;;;;5072836;28;20441;-71
2022/06/08 02:05:33;;;;;;;13.90;3.90;;;;;;;;;;5073328;28;20530;-71
2022/06/08 02:08:04;;;;;;;17.87;4.70;;;;;;;;;;5072459;28;20450;-71
2022/06/08 02:10:35;;;;;;;18.23;4.83;;;;;;;;;;5072865;28;20443;-72
2022/06/08 02:13:06;;;;;;;16.97;4.73;;;;;;;;;;5087002;28;20797;-71
2022/06/08 02:15:34;;;;;;;15.57;4.60;;;;;;;;;;5093236;28;20437;-71
2022/06/08 02:18:05;;;;;;;16.87;5.37;;;;;;;;;;5092539;28;20865;-71
2022/06/08 02:20:35;;;;;;;13.70;3.40;;;;;;;;;;5092744;28;20442;-70
2022/06/08 02:23:05;;;;;;;16.63;4.20;;;;;;;;;;5092799;28;20947;-71
2022/06/08 02:25:36;;;;;;;15.90;4.90;;;;;;;;;;5092602;28;20444;-70
2022/06/08 02:28:06;;;;;;;16.43;5.43;;;;;;;;;;5092490;28;20442;-71
2022/06/08 02:30:36;;;;;;;15.70;4.17;;;;;;;;;;5093085;28;20450;-71
2022/06/08 02:35:52;;;;;;;17.50;5.07;;;;;;;;;;5092473;28;20473;-71
2022/06/08 02:38:22;;;;;;;17.67;4.73;;;;;;;;;;5092180;28;20456;-71
2022/06/08 02:40:52;;;;;;;15.83;4.20;;;;;;;;;;5092357;28;20442;-71
2022/06/08 02:43:21;;;;;;;14.80;4.07;;;;;;;;;;5092587;28;20449;-71
2022/06/08 02:45:53;;;;;;;17.10;4.13;;;;;;;;;;5092323;28;20446;-71
2022/06/08 02:48:20;;;;;;;18.00;5.10;;;;;;;;;;5092237;28;20977;-71
2022/06/08 02:50:52;;;;;;;15.97;5.53;;;;;;;;;;5092234;28;20449;-71
2022/06/08 02:53:39;;;;;;;18.50;5.37;;;;;;;;;;5092157;28;20454;-71
2022/06/08 02:56:15;;;;;;;17.27;6.37;;;;;;;;;;5091834;28;20474;-70
2022/06/08 02:58:46;;;;;;;23.70;7.13;;;;;;;;;;5092171;28;20442;-70
2022/06/08 03:01:15;;;;;;;17.80;6.23;;;;;;;;;;5092054;28;20468;-70
2022/06/08 03:03:45;;;;;;;17.23;6.90;;;;;;;;;;5092158;28;20449;-71
2022/06/08 03:06:15;;;;;;;20.00;6.90;;;;;;;;;;5091929;28;20446;-70
2022/06/08 03:08:45;;;;;;;27.23;6.40;;;;;;;;;;5084394;28;20462;-71
2022/06/08 03:11:16;;;;;;;20.50;7.23;;;;;;;;;;5071664;28;20463;-71
2022/06/08 03:13:46;;;;;;;21.03;7.40;;;;;;;;;;5071567;28;20906;-70
2022/06/08 03:16:27;;;;;;;19.73;7.50;;;;;;;;;;5071604;28;20544;-71
2022/06/08 03:18:54;;;;;;;23.83;6.80;;;;;;;;;;5071919;28;20599;-70
2022/06/08 03:21:22;;;;;;;20.93;7.30;;;;;;;;;;5071665;28;20829;-71
2022/06/08 03:23:49;;;;;;;18.33;6.47;;;;;;;;;;5071573;28;20455;-70
2022/06/08 03:26:19;;;;;;;20.30;7.17;;;;;;;;;;5071372;28;20447;-71
2022/06/08 03:28:47;;;;;;;18.70;8.17;;;;;;;;;;5071615;28;20481;-71
2022/06/08 03:31:15;;;;;;;17.50;6.40;;;;;;;;;;5071799;28;20435;-71
2022/06/08 03:33:42;;;;;;;19.37;6.70;;;;;;;;;;5071674;28;20448;-71
2022/06/08 03:36:11;;;;;;;21.87;6.83;;;;;;;;;;5071094;28;20517;-71
2022/06/08 03:38:38;;;;;;;17.77;6.20;;;;;;;;;;5071942;28;20427;-71
2022/06/08 03:41:06;;;;;;;21.90;8.53;;;;;;;;;;5089505;28;20453;-71
2022/06/08 03:43:35;;;;;;;20.93;6.87;;;;;;;;;;5091594;28;20938;-71
2022/06/08 03:46:03;;;;;;;19.13;7.83;;;;;;;;;;5091407;28;20469;-71
2022/06/08 03:48:31;;;;;;;20.10;7.37;;;;;;;;;;5091393;28;20438;-71
2022/06/08 03:51:01;;;;;;;20.80;6.30;;;;;;;;;;5091656;28;20499;-71
2022/06/08 03:53:30;;;;;;;16.00;6.27;;;;;;;;;;5077969;28;20442;-71
2022/06/08 03:55:58;;;;;;;16.00;4.80;;;;;;;;;;5070976;28;20442;-72
2022/06/08 03:58:26;;;;;;;19.30;6.50;;;;;;;;;;5076293;28;20455;-71
2022/06/08 04:00:55;;;;;;;23.17;6.37;;;;;;;;;;5069905;28;20494;-72
2022/06/08 04:03:23;;;;;;;18.03;6.77;;;;;;;;;;5068908;28;20478;-72
2022/06/08 04:05:50;;;;;;;17.63;6.60;;;;;;;;;;5079286;28;20450;-72
2022/06/08 04:08:18;;;;;;;17.03;6.57;;;;;;;;;;5081788;28;20531;-72
2022/06/08 04:10:46;;;;;;;16.97;5.60;;;;;;;;;;5079585;28;20486;-72
2022/06/08 04:13:14;;;;;;;15.63;5.00;;;;;;;;;;5081857;28;20501;-72
2022/06/08 04:15:45;;;;;;;15.47;5.23;;;;;;;;;;5079283;28;20482;-72
2022/06/08 04:18:15;;;;;;;16.80;5.70;;;;;;;;;;5080055;28;21008;-72
2022/06/08 04:20:44;;;;;;;19.13;7.43;;;;;;;;;;5074710;28;20488;-73
2022/06/08 04:23:11;;;;;;;15.67;5.83;;;;;;;;;;5074712;28;20471;-76
2022/06/08 04:25:40;;;;;;;15.13;5.00;;;;;;;;;;5073976;28;20484;-74
2022/06/08 04:28:08;;;;;;;18.27;6.70;;;;;;;;;;5073972;28;20473;-75
2022/06/08 04:30:36;;;;;;;18.13;6.00;;;;;;;;;;5074285;28;20486;-76
2022/06/08 04:33:05;;;;;;;15.93;4.30;;;;;;;;;;5073922;28;20509;-75
2022/06/08 04:35:33;;;;;;;18.37;4.90;;;;;;;;;;5073428;28;20490;-74
2022/06/08 04:38:01;;;;;;;15.40;4.70;;;;;;;;;;5077629;28;21010;-74
2022/06/08 04:40:29;;;;;;;16.53;4.80;;;;;;;;;;5074191;28;20463;-75
2022/06/08 04:42:56;;;;;;;15.63;5.40;;;;;;;;;;5074415;28;21068;-76
2022/06/08 04:45:24;;;;;;;17.77;6.00;;;;;;;;;;5074311;28;20819;-79
2022/06/08 04:47:52;;;;;;;22.85;6.28;;;;;;;;;;5073115;28;20518;-74
2022/06/08 04:50:20;;;;;;;17.33;6.50;;;;;;;;;;5080750;28;20227;-75
2022/06/08 04:52:49;;;;;;;20.30;6.17;;;;;;;;;;5093092;28;20466;-75
2022/06/08 04:55:17;;;;;;;20.27;6.80;;;;;;;;;;5093747;28;21013;-75
2022/06/08 04:57:44;;;;;;;17.57;6.17;;;;;;;;;;5077563;28;20580;-74
2022/06/08 05:00:13;;;;;;;17.00;5.60;;;;;;;;;;5072856;28;20480;-75
2022/06/08 05:02:43;;;;;;;15.40;5.07;;;;;;;;;;5071711;28;20462;-74
2022/06/08 05:05:12;;;;;;;17.30;5.60;;;;;;;;;;5073267;28;20877;-74
2022/06/08 05:07:39;;;;;;;18.90;5.50;;;;;;;;;;5073548;28;20450;-74
2022/06/08 05:10:09;;;;;;;17.80;6.53;;;;;;;;;;5072938;28;20455;-74
2022/06/08 05:12:37;;;;;;;15.50;4.43;;;;;;;;;;5071886;28;20431;-74
2022/06/08 05:15:07;;;;;;;17.00;5.20;;;;;;;;;;5071849;28;20433;-75
2022/06/08 05:17:34;;;;;;;20.63;5.10;;;;;;;;;;5071746;28;20580;-75
2022/06/08 05:20:03;;;;;;;14.07;4.27;;;;;;;;;;5071994;28;20938;-74
2022/06/08 05:22:30;;;;;;;14.73;4.30;;;;;;;;;;5072151;28;20457;-74
2022/06/08 05:24:58;;;;;;;16.23;4.77;;;;;;;;;;5071830;28;20458;-74
2022/06/08 05:27:27;;;;;;;14.90;4.60;;;;;;;;;;5074024;28;20450;-75
2022/06/08 05:29:54;;;;;;;17.90;5.00;;;;;;;;;;5073501;28;20435;-74
2022/06/08 05:32:22;;;;;;;17.17;4.70;;;;;;;;;;5073192;28;20443;-74
2022/06/08 05:34:49;;;;;;;16.80;4.40;;;;;;;;;;5073339;28;20511;-75
2022/06/08 05:37:17;;;;;;;17.90;4.50;;;;;;;;;;5073520;28;20488;-74
2022/06/08 05:39:44;;;;;;;16.10;4.77;;;;;;;;;;5073376;28;20439;-74
2022/06/08 05:42:12;;;;;;;16.67;4.53;;;;;;;;;;5073012;28;20449;-74
2022/06/08 05:44:41;;;;;;;13.83;3.30;;;;;;;;;;5073325;28;20465;-74
2022/06/08 05:47:09;;;;;;;17.03;3.80;;;;;;;;;;5073174;28;20452;-75
2022/06/08 05:49:36;;;;;;;16.13;3.70;;;;;;;;;;5073046;28;20452;-74
2022/06/08 05:52:06;;;;;;;18.70;4.57;;;;;;;;;;5072865;28;20818;-75
2022/06/08 05:54:33;;;;;;;14.60;3.43;;;;;;;;;;5073021;28;20470;-74
2022/06/08 05:57:01;;;;;;;15.67;4.00;;;;;;;;;;5073290;28;20493;-74
2022/06/08 05:59:29;;;;;;;15.33;3.83;;;;;;;;;;5072999;28;20467;-74
2022/06/08 06:01:58;;;;;;;14.47;3.53;;;;;;;;;;5072740;28;20438;-74
2022/06/08 06:04:25;;;;;;;15.90;3.87;;;;;;;;;;5073422;28;20469;-74
2022/06/08 06:06:53;;;;;;;14.33;3.33;;;;;;;;;;5072772;28;20447;-74
2022/06/08 06:09:21;;;;;;;18.10;3.80;;;;;;;;;;5072926;28;20444;-74
2022/06/08 06:11:49;;;;;;;14.57;3.90;;;;;;;;;;5072634;28;20448;-75
2022/06/08 06:14:17;;;;;;;14.23;3.37;;;;;;;;;;5072362;28;20443;-74
2022/06/08 06:16:45;;;;;;;15.60;4.13;;;;;;;;;;5072508;28;20458;-74
2022/06/08 06:19:13;;;;;;;14.30;3.57;;;;;;;;;;5072551;28;20446;-74
2022/06/08 06:21:41;;;;;;;14.40;3.60;;;;;;;;;;5072568;28;20437;-74
2022/06/08 06:24:08;;;;;;;15.70;3.50;;;;;;;;;;5072188;28;20522;-74
2022/06/08 06:26:36;;;;;;;17.43;3.70;;;;;;;;;;5072633;28;20439;-75
2022/06/08 06:29:03;;;;;;;14.50;3.73;;;;;;;;;;5072361;28;20449;-75
2022/06/08 06:31:38;;;;;;;16.13;3.87;;;;;;;;;;5072337;28;20435;-75
2022/06/08 06:34:06;;;;;;;15.40;3.93;;;;;;;;;;5072316;28;20451;-75
2022/06/08 06:36:34;;;;;;;15.70;4.13;;;;;;;;;;5071595;28;20446;-75
2022/06/08 06:39:02;;;;;;;13.63;3.57;;;;;;;;;;5072244;28;20487;-75
2022/06/08 06:41:31;;;;;;;18.47;4.10;;;;;;;;;;5072071;28;20575;-75
2022/06/08 06:43:59;;;;;;;15.63;3.23;;;;;;;;;;5072167;28;20431;-75
2022/06/08 06:46:26;;;;;;;13.67;3.80;;;;;;;;;;5072327;28;20439;-74
2022/06/08 06:48:54;;;;;;;15.10;3.70;;;;;;;;;;5072228;28;20811;-74
2022/06/08 06:51:22;;;;;;;15.43;3.33;;;;;;;;;;5072149;28;20443;-74
2022/06/08 06:53:50;;;;;;;13.60;3.80;;;;;;;;;;5071952;28;20439;-74
2022/06/08 06:56:19;;;;;;;14.50;3.07;;;;;;;;;;5071922;28;20696;-75
2022/06/08 06:58:48;;;;;;;14.60;2.97;;;;;;;;;;5072060;28;20501;-75
2022/06/08 07:01:16;;;;;;;14.17;3.40;;;;;;;;;;5072455;28;20439;-74
2022/06/08 07:03:44;;;;;;;15.10;2.97;;;;;;;;;;5072100;28;20443;-74
2022/06/08 07:06:12;;;;;;;14.97;4.20;;;;;;;;;;5071904;28;20443;-75
2022/06/08 07:08:40;;;;;;;20.03;3.90;;;;;;;;;;5071635;28;20458;-74
2022/06/08 07:14:00;;;;;;;14.00;3.10;;;;;;;;;;5055856;28;20446;-75
2022/06/08 07:16:27;;;;;;;14.60;2.97;;;;;;;;;;5072103;28;20899;-74
2022/06/08 07:18:55;;;;;;;14.60;3.40;;;;;;;;;;5071595;28;21026;-76
2022/06/08 07:21:23;;;;;;;14.70;3.70;;;;;;;;;;5071719;28;20517;-75
2022/06/08 07:23:51;;;;;;;13.63;3.30;;;;;;;;;;5071902;28;20447;-75
2022/06/08 07:26:19;;;;;;;16.70;3.67;;;;;;;;;;5071453;28;20451;-75
2022/06/08 07:28:47;;;;;;;15.77;3.90;;;;;;;;;;5071907;28;20447;-74
2022/06/08 07:31:14;;;;;;;13.50;3.10;;;;;;;;;;5071681;28;20439;-75
2022/06/08 07:33:42;;;;;;;12.97;2.57;;;;;;;;;;5071556;28;20446;-74
2022/06/08 07:36:09;;;;;;;14.53;2.80;;;;;;;;;;5071324;28;20435;-74
2022/06/08 07:38:37;;;;;;;14.07;3.40;;;;;;;;;;5071787;28;20483;-75
2022/06/08 07:41:05;;;;;;;13.53;2.40;;;;;;;;;;5071499;28;20514;-75
2022/06/08 07:43:34;;;;;;;14.33;2.73;;;;;;;;;;5071462;28;20443;-74
2022/06/08 07:46:01;;;;;;;14.23;2.60;;;;;;;;;;5071620;28;20951;-75
2022/06/08 07:51:13;;;;;;;13.40;2.50;;;;;;;;;;5075433;28;20437;-74
2022/06/08 07:53:41;;;;;;;14.67;2.53;;;;;;;;;;5075311;28;20441;-74
2022/06/08 07:56:09;;;;;;;12.80;2.23;;;;;;;;;;5075134;28;20458;-74
2022/06/08 07:58:38;;;;;;;12.33;2.13;;;;;;;;;;5075298;28;20478;-75
2022/06/08 08:01:06;;;;;;;19.73;3.20;;;;;;;;;;5075213;28;20430;-73
2022/06/08 08:03:33;;;;;;;12.73;2.20;;;;;;;;;;5075074;28;20864;-74
2022/06/08 08:06:01;;;;;;;14.50;2.83;;;;;;;;;;5075209;28;20456;-74
2022/06/08 08:08:28;;;;;;;13.83;2.70;;;;;;;;;;5074921;28;20443;-74
2022/06/08 08:10:56;;;;;;;16.47;2.70;;;;;;;;;;5075155;28;20439;-75
2022/06/08 08:13:24;;;;;;;13.07;2.80;;;;;;;;;;5074881;28;20808;-74
2022/06/08 08:15:53;;;;;;;14.20;2.60;;;;;;;;;;5075123;28;20446;-74
2022/06/08 08:18:20;;;;;;;16.43;2.83;;;;;;;;;;5074756;28;20513;-74
2022/06/08 08:20:47;;;;;;;13.73;2.97;;;;;;;;;;5074864;28;20435;-74
2022/06/08 08:23:15;;;;;;;14.60;3.60;;;;;;;;;;5075002;28;20822;-74
2022/06/08 08:25:42;;;;;;;13.50;2.60;;;;;;;;;;5074689;28;20870;-74
2022/06/08 08:28:12;;;;;;;14.97;2.77;;;;;;;;;;5074766;28;20446;-74
2022/06/08 08:30:39;;;;;;;12.93;2.47;;;;;;;;;;5075157;28;20890;-74
2022/06/08 08:33:08;;;;;;;14.40;2.50;;;;;;;;;;5074734;28;20473;-74
2022/06/08 08:35:36;;;;;;;13.13;2.50;;;;;;;;;;5074638;28;20440;-74
2022/06/08 08:38:03;;;;;;;18.80;3.47;;;;;;;;;;5074184;28;20914;-74
2022/06/08 08:40:42;;;;;;;15.20;3.40;;;;;;;;;;5074442;28;20471;-74
2022/06/08 08:43:11;;;;;;;18.37;3.00;;;;;;;;;;5074831;28;20525;-74
2022/06/08 08:45:44;;;;;;;13.80;3.33;;;;;;;;;;5074501;28;20948;-74
2022/06/08 08:48:16;;;;;;;14.43;3.40;;;;;;;;;;5074253;28;20550;-74
2022/06/08 08:50:48;;;;;;;12.53;2.50;;;;;;;;;;5074255;28;20455;-74
2022/06/08 08:53:23;;;;;;;15.00;3.20;;;;;;;;;;5074284;28;20452;-74
2022/06/08 08:55:51;;;;;;;15.70;3.20;;;;;;;;;;5074419;28;20814;-74
2022/06/08 08:58:20;;;;;;;13.30;2.90;;;;;;;;;;5073575;28;20534;-74
2022/06/08 09:00:50;;;;;;;13.60;3.07;;;;;;;;;;5074095;28;20488;-74
2022/06/08 09:03:22;;;;;;;14.27;3.03;;;;;;;;;;5074014;28;20452;-74
2022/06/08 09:05:51;;;;;;;14.57;3.60;;;;;;;;;;5074310;28;20446;-74
2022/06/08 09:08:19;;;;;;;14.70;2.73;;;;;;;;;;5073690;28;20862;-74
2022/06/08 09:10:47;;;;;;;13.07;2.80;;;;;;;;;;5074121;28;20495;-73
2022/06/08 09:13:17;;;;;;;18.00;3.67;;;;;;;;;;5073832;28;20565;-74
2022/06/08 09:15:47;;;;;;;16.33;3.57;;;;;;;;;;5073825;28;20813;-75
2022/06/08 09:18:36;;;;;;;15.47;3.60;;;;;;;;;;5073445;28;20524;-74
2022/06/08 09:21:19;;;;;;;13.83;2.93;;;;;;;;;;5073774;28;20953;-75
2022/06/08 09:23:50;;;;;;;14.40;3.50;;;;;;;;;;5072313;28;20448;-74
2022/06/08 09:26:29;;;;;;;18.83;3.73;;;;;;;;;;5073387;28;20436;-74
2022/06/08 09:28:58;;;;;;;13.70;2.90;;;;;;;;;;5074157;28;20460;-74
2022/06/08 09:31:27;;;;;;;13.70;3.10;;;;;;;;;;5073715;28;20463;-75
2022/06/08 09:34:05;;;;;;;18.03;3.27;;;;;;;;;;5073424;28;20451;-74
2022/06/08 09:36:33;;;;;;;16.00;3.23;;;;;;;;;;5073492;28;20885;-74
2022/06/08 09:39:01;;;;;;;15.60;3.17;;;;;;;;;;5073344;28;21009;-74
2022/06/08 09:41:32;;;;;;;15.77;3.30;;;;;;;;;;5073438;28;20445;-73
2022/06/08 09:44:09;;;;;;;15.03;3.47;;;;;;;;;;5073363;28;20440;-74
2022/06/08 09:52:26;;;;;;;14.53;3.10;;;;;;;;;;5073160;28;20427;-73
2022/06/08 09:55:04;;;;;;;14.70;3.57;;;;;;;;;;5073170;28;20932;-74
2022/06/08 09:57:37;;;;;;;15.73;3.70;;;;;;;;;;5072988;28;20469;-74
2022/06/08 10:00:09;;;;;;;15.03;4.13;;;;;;;;;;5072465;28;20495;-74
2022/06/08 10:02:40;;;;;;;19.20;4.47;;;;;;;;;;5072807;28;21029;-73
2022/06/08 10:05:16;;;;;;;16.70;4.10;;;;;;;;;;5072848;28;20447;-74
2022/06/08 10:07:48;;;;;;;14.20;3.70;;;;;;;;;;5072908;28;20439;-74
2022/06/08 10:10:22;;;;;;;18.60;4.73;;;;;;;;;;5072339;28;20443;-74
2022/06/08 10:12:57;;;;;;;16.83;4.87;;;;;;;;;;5072676;28;20439;-74
2022/06/08 10:15:26;;;;;;;14.90;4.27;;;;;;;;;;5072779;28;20942;-74
2022/06/08 10:17:56;;;;;;;15.40;3.90;;;;;;;;;;5072598;28;20506;-74
2022/06/08 10:20:29;;;;;;;22.70;4.83;;;;;;;;;;5072412;28;20439;-75
2022/06/08 10:23:00;;;;;;;16.10;4.40;;;;;;;;;;5073249;28;20857;-74
2022/06/08 10:25:31;;;;;;;14.50;3.70;;;;;;;;;;5073046;28;20466;-75
2022/06/08 10:28:00;;;;;;;15.33;3.07;;;;;;;;;;5072344;28;20816;-75
2022/06/08 10:30:30;;;;;;;12.70;2.77;;;;;;;;;;5072359;28;20435;-74
2022/06/08 10:33:02;;;;;;;12.97;2.70;;;;;;;;;;5072579;28;20450;-74
2022/06/08 10:35:32;;;;;;;13.17;2.77;;;;;;;;;;5072302;28;20967;-74
2022/06/08 10:38:00;;;;;;;13.47;2.83;;;;;;;;;;5071977;28;20448;-74
2022/06/08 10:40:30;;;;;;;12.83;2.67;;;;;;;;;;5072313;28;20446;-74
2022/06/08 10:42:57;;;;;;;13.97;2.80;;;;;;;;;;5072329;28;20442;-74
2022/06/08 10:45:44;;;;;;;14.87;2.63;;;;;;;;;;5072037;28;20964;-74
2022/06/08 10:48:42;;;;;;;15.77;4.50;;;;;;;;;;5071895;28;20503;-74
2022/06/08 10:51:24;;;;;;;14.73;3.27;;;;;;;;;;5010497;28;20450;-74
2022/06/08 10:56:48;;;;;;;14.67;2.93;;;;;;;;;;5072078;28;20810;-74
2022/06/08 10:59:17;;;;;;;13.53;2.20;;;;;;;;;;5071830;28;20491;-74
2022/06/08 11:01:52;;;;;;;18.60;3.07;;;;;;;;;;5071910;28;20446;-75
2022/06/08 11:04:46;;;;;;;14.97;2.77;;;;;;;;;;5071689;28;20441;-74
2022/06/08 11:07:17;;;;;;;12.93;2.70;;;;;;;;;;5036611;28;20446;-75
2022/06/08 11:10:09;;;;;;;11.83;2.10;;;;;;;;;;5072235;28;20444;-74
2022/06/08 11:12:40;;;;;;;13.50;2.50;;;;;;;;;;5071999;28;20442;-75
2022/06/08 11:15:18;;;;;;;13.60;2.10;;;;;;;;;;5072184;28;20438;-74
2022/06/08 11:17:50;;;;;;;14.20;2.67;;;;;;;;;;5071802;28;20482;-75
2022/06/08 11:20:20;;;;;;;14.30;2.80;;;;;;;;;;5071625;28;21008;-75
2022/06/08 11:22:52;;;;;;;13.17;2.90;;;;;;;;;;5071290;28;20433;-75
2022/06/08 11:25:23;;;;;;;12.50;2.30;;;;;;;;;;5071851;28;20436;-75
2022/06/08 11:28:05;;;;;;;14.27;2.30;;;;;;;;;;5071816;28;20472;-75
2022/06/08 11:30:49;;;;;;;12.67;2.20;;;;;;;;;;5072121;28;20451;-75
2022/06/08 11:33:18;;;;;;;13.13;2.37;;;;;;;;;;5071540;28;20443;-75
2022/06/08 11:35:58;;;;;;;13.37;2.10;;;;;;;;;;5072014;28;20439;-75
2022/06/08 11:38:36;;;;;;;12.17;2.10;;;;;;;;;;5071501;28;20456;-74
2022/06/08 11:41:23;;;;;;;15.40;2.20;;;;;;;;;;5071875;28;20440;-75
2022/06/08 11:43:51;;;;;;;13.83;2.53;;;;;;;;;;5071536;28;20440;-74
2022/06/08 11:46:22;;;;;;;13.97;2.17;;;;;;;;;;5071298;28;20434;-75
2022/06/08 11:48:49;;;;;;;12.83;1.80;;;;;;;;;;5071621;28;20454;-74
2022/06/08 11:51:29;;;;;;;13.37;2.37;;;;;;;;;;5071519;28;20450;-75
2022/06/08 11:53:59;;;;;;;12.77;2.10;;;;;;;;;;5071372;28;20443;-75
2022/06/08 11:56:32;;;;;;;13.83;2.20;;;;;;;;;;5071533;28;20441;-74
2022/06/08 11:59:01;;;;;;;13.60;2.03;;;;;;;;;;5071326;28;20480;-74
2022/06/08 12:01:30;;;;;;;14.53;2.47;;;;;;;;;;5071467;28;20443;-75
2022/06/08 12:04:00;;;;;;;12.93;2.70;;;;;;;;;;5071306;28;21021;-74
2022/06/08 12:06:31;;;;;;;12.97;1.80;;;;;;;;;;5071479;28;20499;-74
2022/06/08 12:09:02;;;;;;;18.60;1.87;;;;;;;;;;5071334;28;20455;-75
2022/06/08 12:11:32;;;;;;;11.90;1.90;;;;;;;;;;5071648;28;20452;-75
2022/06/08 12:14:01;;;;;;;11.70;1.70;;;;;;;;;;5071394;28;20517;-74
2022/06/08 12:16:31;;;;;;;13.50;2.03;;;;;;;;;;5071473;28;20438;-74
2022/06/08 12:19:02;;;;;;;12.80;1.63;;;;;;;;;;5071103;28;20493;-75
2022/06/08 12:21:31;;;;;;;11.97;1.77;;;;;;;;;;5071235;28;20930;-75
2022/06/08 12:24:05;;;;;;;12.17;1.90;;;;;;;;;;5071046;28;20860;-75
2022/06/08 12:26:42;;;;;;;11.73;1.80;;;;;;;;;;5071134;28;20443;-75
2022/06/08 12:29:25;;;;;;;12.77;2.00;;;;;;;;;;5071125;28;20445;-75
2022/06/08 12:32:03;;;;;;;16.53;2.10;;;;;;;;;;5071475;28;20522;-75
2022/06/08 12:34:36;;;;;;;14.40;1.87;;;;;;;;;;5072806;28;21013;-75
2022/06/08 12:37:18;;;;;;;12.10;1.53;;;;;;;;;;5074691;28;20439;-75
2022/06/08 12:39:47;;;;;;;12.20;1.70;;;;;;;;;;5074451;28;20489;-74
2022/06/08 12:42:25;;;;;;;13.27;2.00;;;;;;;;;;5074210;28;20435;-75
2022/06/08 12:44:53;;;;;;;15.17;1.87;;;;;;;;;;5074853;28;20439;-75
2022/06/08 12:47:21;;;;;;;13.00;1.70;;;;;;;;;;5074722;28;20439;-74
2022/06/08 12:49:51;;;;;;;12.50;1.70;;;;;;;;;;5074501;28;20454;-75
2022/06/08 12:52:22;;;;;;;11.43;1.60;;;;;;;;;;5074069;28;20510;-75
2022/06/08 12:54:51;;;;;;;17.93;2.30;;;;;;;;;;5074298;28;20446;-75
2022/06/08 12:57:20;;;;;;;11.13;1.57;;;;;;;;;;5074157;28;20443;-75
2022/06/08 12:59:49;;;;;;;11.77;1.73;;;;;;;;;;5074110;28;20509;-75
2022/06/08 13:02:19;;;;;;;13.27;3.00;;;;;;;;;;5074054;28;20442;-75
2022/06/08 13:04:46;;;;;;;11.80;1.70;;;;;;;;;;5074127;28;20445;-75
2022/06/08 13:07:15;;;;;;;14.00;2.10;;;;;;;;;;5074232;28;20462;-74
2022/06/08 13:09:43;;;;;;;15.40;1.83;;;;;;;;;;5074077;28;20455;-74
2022/06/08 13:12:13;;;;;;;16.90;2.80;;;;;;;;;;5073833;28;20445;-74
2022/06/08 13:14:43;;;;;;;13.70;1.73;;;;;;;;;;5074108;28;20439;-74
2022/06/08 13:17:12;;;;;;;12.83;1.70;;;;;;;;;;5073823;28;20980;-75
2022/06/08 13:19:39;;;;;;;12.70;2.00;;;;;;;;;;5073706;28;20484;-74
2022/06/08 13:22:07;;;;;;;14.67;3.17;;;;;;;;;;5073735;28;20500;-74
2022/06/08 13:24:35;;;;;;;12.10;1.70;;;;;;;;;;5073896;28;20442;-74
2022/06/08 13:27:02;;;;;;;12.60;1.87;;;;;;;;;;5073613;28;20440;-73
2022/06/08 13:29:31;;;;;;;14.33;2.30;;;;;;;;;;5073584;28;20461;-74
2022/06/08 13:31:59;;;;;;;13.67;2.77;;;;;;;;;;5073261;28;20442;-74
2022/06/08 13:34:26;;;;;;;15.80;2.20;;;;;;;;;;5073478;28;20484;-74
2022/06/08 13:36:55;;;;;;;14.30;1.93;;;;;;;;;;5073529;28;20440;-74
2022/06/08 13:39:29;;;;;;;12.60;2.03;;;;;;;;;;5073584;28;20481;-74
2022/06/08 13:41:58;;;;;;;14.13;2.03;;;;;;;;;;5073397;28;20440;-74
2022/06/08 13:44:26;;;;;;;20.83;2.40;;;;;;;;;;5073079;28;20472;-74
2022/06/08 13:46:58;;;;;;;19.17;2.63;;;;;;;;;;5073497;28;20439;-74
2022/06/08 13:49:27;;;;;;;12.73;2.17;;;;;;;;;;5073205;28;20456;-74
2022/06/08 13:51:55;;;;;;;12.23;2.00;;;;;;;;;;5073123;28;20438;-73
2022/06/08 13:54:25;;;;;;;12.87;2.00;;;;;;;;;;5073013;28;20439;-74
2022/06/08 13:56:54;;;;;;;14.47;2.27;;;;;;;;;;5073001;28;20439;-74
2022/06/08 13:59:22;;;;;;;15.53;2.30;;;;;;;;;;5072778;28;20491;-74
2022/06/08 14:01:50;;;;;;;15.17;2.70;;;;;;;;;;5072894;28;20443;-74
2022/06/08 14:04:21;;;;;;;12.73;2.20;;;;;;;;;;5072632;28;20983;-75
2022/06/08 14:15:16;;;;;;;15.57;2.10;;;;;;;;;;5055634;28;20437;-74
2022/06/08 14:17:45;;;;;;;14.03;2.00;;;;;;;;;;5072408;28;20489;-74
2022/06/08 14:20:22;;;;;;;12.20;1.97;;;;;;;;;;5072489;28;20478;-74
2022/06/08 14:22:51;;;;;;;14.33;1.70;;;;;;;;;;5072574;28;20953;-73
2022/06/08 14:25:19;;;;;;;12.60;2.00;;;;;;;;;;5072557;28;20454;-73
2022/06/08 14:27:47;;;;;;;12.37;1.97;;;;;;;;;;5072887;28;20443;-75
2022/06/08 14:30:16;;;;;;;13.10;2.33;;;;;;;;;;5072250;28;20479;-74
2022/06/08 14:35:55;;;;;;;12.27;1.63;;;;;;;;;;5072483;28;20581;-74
2022/06/08 14:38:25;;;;;;;12.70;1.77;;;;;;;;;;5072253;28;20455;-74
2022/06/08 14:40:53;;;;;;;13.70;2.20;;;;;;;;;;5072102;28;20479;-73
2022/06/08 14:43:21;;;;;;;15.40;2.00;;;;;;;;;;5072668;28;20443;-74
2022/06/08 14:45:48;;;;;;;12.50;2.10;;;;;;;;;;5072125;28;20478;-73
2022/06/08 14:48:17;;;;;;;14.93;2.20;;;;;;;;;;5071889;28;20479;-73
2022/06/08 14:50:47;;;;;;;13.00;1.60;;;;;;;;;;5072177;28;20440;-73
2022/06/08 14:53:17;;;;;;;15.87;2.17;;;;;;;;;;5072314;28;20517;-73
2022/06/08 14:58:29;;;;;;;12.80;2.20;;;;;;;;;;5071926;28;20467;-74
2022/06/08 15:00:56;;;;;;;14.90;2.60;;;;;;;;;;5072009;28;20495;-73
2022/06/08 15:03:25;;;;;;;14.23;2.30;;;;;;;;;;5071937;28;20450;-73
2022/06/08 15:17:23;;;;;;;15.07;2.53;;;;;;;;;;5054357;27;2196787;-73
2022/06/08 15:19:51;;;;;;;13.37;2.57;;;;;;;;;;5108948;28;20237;-73
2022/06/08 15:22:20;;;;;;;12.27;2.30;;;;;;;;;;5108561;28;20450;-75
2022/06/08 15:24:48;;;;;;;13.00;2.57;;;;;;;;;;5108164;28;20445;-74
2022/06/08 15:27:19;;;;;;;12.83;2.13;;;;;;;;;;5108407;28;20963;-75
2022/06/08 15:29:47;;;;;;;15.20;2.50;;;;;;;;;;5108562;28;20436;-74
2022/06/08 15:32:15;;;;;;;21.00;2.87;;;;;;;;;;5108257;28;20935;-74
2022/06/08 15:34:44;;;;;;;12.80;2.60;;;;;;;;;;5108120;28;20455;-74